Casper-Natrona County International Airport
KCPR : now visible

Airfield :











YOU CAN JOIN US ON...

 
LOGIN :

Register | Disclaimer

   EN    FR    IT 

 









Legend :    VFR   Marginal VFR   IFR   Intensive IFR   Very Intensive IFR
Visi :
Ceiling :
>= 8 km
>= 3000ft
5 to 8 km
1000 to 3000 ft
1500m to 5 km
500 to 1000 ft
800 to 1500m
200 to 500 ft
< 800m
< 200 ft
Symbols :   Thunderstorms  Fog  Heavy snow  Heavy precipitations  Wind > 20 kt






- Airport Elevation : 5350 ft
- IATA code : CPR


KCPR - Casper-Natrona County International

CURRENT METAR :
  • 072053Z 21018G27KT 10SM CLR 06/M02 A2992 RMK AO2 PK WND 22031/1956 RAB20E29 SLP129 P0000 60000 T00561022 58001

EXPIRED METARs :
  • 071953Z 23022G29KT 10SM CLR 06/M02 A2994 RMK AO2 PK WND 23034/1915 SLP139 T00561022
  • 071853Z 22021G32KT 10SM CLR 06/M02 A2995 RMK AO2 PK WND 23047/1754 SLP139 T00561017

TAF KCPR
Valid from the 07 at 18:00 until the 08 at 18:00 UTC


071738Z 0718/0818 22030G45KT P6SM FEW250
FM080300 22022G32KT P6SM SCT200



MET'MAP, your aeronautical weather chart ! - Copyright ORBIFLY December 2007 - Disclaimer

ORBIFLY MET'MAP TEAM :

Programming & Development : Alexandra Zaïnal
Concept & original design : Baudouin d'Aumeries
Assistance for programming : Marc-Olivier Méhu
Technical & hardware support : Manuel Goepfert

Contact : metmap@orbifly.com




SOURCES & CREDITS :

   NOAA       Earth
Advisory